Flight Track Log - Related Links

Times and Time Zones

All times are in EST time to prevent confusion due to time zone crossing. See the OPT332 flight status page for this flight to view local times or setup timezone preferences in your user account.

Time Position Orientation Groundspeed Altitude Reporting Facility
EST Latitude Longitude Course Direction KTS MPH feet Rate Location/Type
Sat 01:53:24 PM 35.6042 -106.1058 270° West 151 174 8,100  Level Albuquerque Center
Sat 01:54:25 PM 35.5847 -106.1747 251° West 201 231 12,500 4,341 Climbing Albuquerque Center
Sat 01:55:27 PM 35.6000 -106.2386 286° West 232 267 17,000 2,661 Climbing Albuquerque Center
Sat 01:56:29 PM 35.6597 -106.2931 323° Northwest 261 300 18,000 439 Climbing Albuquerque Center
Sat 01:57:30 PM 35.7286 -106.3594 322° Northwest 302 348 17,900 -49 Descending Albuquerque Center
Sat 01:58:00 PM 35.8698 -106.3574 270° West  Level Estimated
Sat 01:58:32 PM 35.7939 -106.4225 322° Northwest 302 348 17,900  Level Albuquerque Center
Sat 01:59:34 PM 35.8594 -106.4858 322° Northwest 301 346 17,900  Level Albuquerque Center
Sat 02:00:35 PM 35.9375 -106.5603 322° Northwest 294 338 17,900  Level Albuquerque Center
Sat 02:01:37 PM 35.9978 -106.6192 322° Northwest 291 335 17,900  Level Albuquerque Center
Sat 02:02:39 PM 36.0683 -106.6875 322° Northwest 290 334 17,900  Level Albuquerque Center
Sat 02:03:40 PM 36.1308 -106.7467 323° Northwest 293 337 17,900  Level Albuquerque Center
Sat 02:04:42 PM 36.1928 -106.8075 322° Northwest 297 342 17,900 -48 Level Albuquerque Center
Sat 02:05:44 PM 36.2639 -106.8761 322° Northwest 292 336 17,800 -49 Descending Albuquerque Center
Sat 02:06:45 PM 36.3236 -106.9353 321° Northwest 290 334 17,800  Level Albuquerque Center
Sat 02:07:47 PM 36.3939 -107.0036 322° Northwest 288 331 17,800  Level Albuquerque Center
Sat 02:08:49 PM 36.4511 -107.0583 322° Northwest 278 320 17,800  Level Albuquerque Center
Sat 02:09:50 PM 36.5114 -107.1200 321° Northwest 260 299 17,800 49 Level Albuquerque Center
Sat 02:10:52 PM 36.5597 -107.1833 314° West 262 302 17,900 194 Climbing Albuquerque Center
Sat 02:11:54 PM 36.6042 -107.2625 305° West 254 292 18,200 127 Climbing Albuquerque Center
Sat 02:13:14 PM 36.6536 -107.3525 304° West 249 287 18,200  Level Denver Center
Sat 02:14:28 PM 36.6914 -107.4194 305° West 248 285 18,200 -265 Level Denver Center
Sat 02:15:30 PM 36.7394 -107.5083 304° West 244 281 17,600 -878 Descending Denver Center
Sat 02:16:31 PM 36.7722 -107.5681 304° West 223 257 16,400 -1,463 Descending Denver Center
Sat 02:17:33 PM 36.8097 -107.6353 305° West 217 250 14,600 -1,659 Descending Denver Center
Sat 02:18:34 PM 36.8419 -107.6956 304° West 212 244 13,000 -1,561 Descending Denver Center
Sat 02:19:36 PM 36.8728 -107.7517 304° West 201 231 11,400 -1,463 Descending Denver Center
Sat 02:20:37 PM 36.9022 -107.8067 304° West 192 221 10,000 -732 Descending Denver Center
Sat 02:21:39 PM 36.9325 -107.8606 305° West 191 220 9,900 -49 Descending Denver Center
Sat 02:22:40 PM 36.9786 -107.9075 321° Northwest 194 223 9,900 -222 Level Denver Center
Sat 02:23:54 PM 37.0272 -107.8717 30° Northeast 209 241 9,400 -622 Descending Denver Center
Sat 02:24:55 PM 37.0628 -107.8386 37° Northeast 169 194 8,500 -976 Descending Denver Center
Sat 02:25:57 PM 37.1058 -107.7964 38° Northeast 162 186 7,400 -581 Descending Denver Center
Sat 02:26:59 PM 37.1233 -107.7514 64° Northeast 151 174 7,300 -97 Descending Denver Center

Login

Don't have an account? Register now (free) for customized features, flight alerts, and more!